Kendall Tamiami Executive Airport
KTMB : now visible

Airfield :











YOU CAN JOIN US ON...

 
LOGIN :

Register | Disclaimer

   EN    FR    IT 

 









Legend :    VFR   Marginal VFR   IFR   Intensive IFR   Very Intensive IFR
Visi :
Ceiling :
>= 8 km
>= 3000ft
5 to 8 km
1000 to 3000 ft
1500m to 5 km
500 to 1000 ft
800 to 1500m
200 to 500 ft
< 800m
< 200 ft
Symbols :   Thunderstorms  Fog  Heavy snow  Heavy precipitations  Wind > 20 kt






- Airport Elevation : 8 ft


KTMB - Kendall Tamiami Executive

CURRENT METAR :
  • 211106Z AUTO 35013G18KT 10SM BKN008 12/11 A3010 RMK AO2 T01220111

EXPIRED METARs :
  • 211053Z AUTO 36011KT 10SM FEW008 12/11 A3009 RMK AO2 SLP188 T01170111
  • 210953Z AUTO 36012KT 10SM SCT008 12/11 A3008 RMK AO2 SLP185 T01220111
  • 210932Z AUTO 35011KT 10SM FEW009 12/11 A3008 RMK AO2 T01220111
  • 210853Z AUTO 36009KT 10SM CLR 12/10 A3009 RMK AO2 SLP188 T01220100 55005

TAF KTMB
Valid from the 21 at 12:00 until the 22 at 12:00 UTC


211131Z 2112/2212 35010KT P6SM SCT250
TEMPO 2112/2113 BKN009
FM211400 33012G20KT P6SM FEW050 SCT250
FM220200 35014KT P6SM FEW050 SCT250



MET'MAP, your aeronautical weather chart ! - Copyright ORBIFLY December 2007 - Disclaimer

ORBIFLY MET'MAP TEAM :

Programming & Development : Alexandra Zaïnal
Concept & original design : Baudouin d'Aumeries
Assistance for programming : Marc-Olivier Méhu
Technical & hardware support : Manuel Goepfert

Contact : metmap@orbifly.com




SOURCES & CREDITS :

   NOAA       Earth
Advisory